Court-Saint-Etienne, Belgium
Current Conditions -  °F | °C
As of 3:25 PM on Monday 24 Nov 2014 (Local Time) from EBBE Reporting Station
Scattered Clouds Scattered Clouds  
Wind Chill: 48°   Ceiling: Unl
Heat Index: 48°   Visibility: 6mi
Dew Point: 39°   Wind: 1mph
Humidity: 71%   Direction: NA
Pressure: 30.3"   Gusts: NA
Location:  50.63°N, 4.57°E
Report Text: EBBE 241425Z VRB01KT 9999 FEW030 SCT250 09/04 Q1026 BLU BLU
Loading
Personal Weather Stations






























Interactive Weather Map New forecast layout! Learn more

10-Day Weather Forecast

Advertisements
Track Severe Weather on mobile